Time;durP1;ratioP1;P1;durP2;ratioP2;P2;SDS_P1;SDS_P2;PMS_P1;PMS_P2;Temp;Humidity;BMP_temperature;BMP_pressure;BME280_temperature;BME280_humidity;BME280_pressure;Samples;Min_cycle;Max_cycle;Signal;HPM_P1;HPM_P2
2023/08/24 00:01:06;;;;;;;15.50;14.10;;;;;;;22.34;68.36;93011.38;5078775;28;20206;-74
2023/08/24 00:03:32;;;;;;;16.23;14.57;;;;;;;22.53;67.67;93030.16;5067088;28;20285;-74
2023/08/24 00:05:58;;;;;;;15.60;14.00;;;;;;;22.61;67.52;93034.56;5068467;28;20284;-74
2023/08/24 00:08:23;;;;;;;16.83;15.10;;;;;;;22.59;67.79;93036.78;5067686;28;20227;-73
2023/08/24 00:10:49;;;;;;;16.45;14.55;;;;;;;22.65;67.60;93043.41;5068390;28;20270;-73
2023/08/24 00:13:15;;;;;;;16.05;14.65;;;;;;;22.59;68.10;93038.66;5067863;28;20215;-74
2023/08/24 00:15:41;;;;;;;15.70;14.13;;;;;;;22.50;68.24;93035.34;5068468;28;20203;-74
2023/08/24 00:18:07;;;;;;;15.90;14.32;;;;;;;22.24;68.87;93022.53;5067890;28;20224;-74
2023/08/24 00:20:33;;;;;;;16.00;14.48;;;;;;;22.29;69.05;93040.88;5068226;28;20196;-74
2023/08/24 00:22:59;;;;;;;16.13;14.43;;;;;;;22.37;68.49;93029.31;5067672;28;20235;-74
2023/08/24 00:25:25;;;;;;;15.60;14.20;;;;;;;22.29;69.32;93024.16;5068412;28;20215;-74
2023/08/24 00:27:54;;;;;;;15.77;14.38;;;;;;;22.34;68.77;93021.25;5069658;28;20246;-71
2023/08/24 00:30:19;;;;;;;16.05;14.45;;;;;;;22.29;68.81;93014.28;5076317;28;20177;-71
2023/08/24 00:32:44;;;;;;;15.90;14.68;;;;;;;22.19;69.29;93020.88;5069245;28;20225;-71
2023/08/24 00:35:10;;;;;;;15.68;14.27;;;;;;;22.22;68.80;93019.44;5074944;28;20220;-71
2023/08/24 00:37:36;;;;;;;14.55;13.27;;;;;;;22.20;68.25;93016.31;5064978;28;20223;-72
2023/08/24 00:40:05;;;;;;;15.65;14.25;;;;;;;22.20;68.42;93017.13;5065881;28;20196;-72
2023/08/24 00:42:31;;;;;;;15.70;14.30;;;;;;;22.14;68.50;93017.69;5067606;28;20220;-71
2023/08/24 00:44:58;;;;;;;16.13;14.57;;;;;;;22.23;68.48;93015.66;5058184;28;20264;-72
2023/08/24 00:47:24;;;;;;;14.70;13.30;;;;;;;22.12;68.76;93023.34;5063448;28;20190;-71
2023/08/24 00:49:50;;;;;;;14.88;13.48;;;;;;;22.07;69.00;93020.16;5060134;28;20205;-71
2023/08/24 00:52:17;;;;;;;14.32;13.00;;;;;;;22.03;68.88;93027.25;5072082;28;20191;-71
2023/08/24 00:54:42;;;;;;;15.25;13.88;;;;;;;21.90;69.18;93031.06;5069527;28;20183;-71
2023/08/24 00:57:08;;;;;;;15.20;13.77;;;;;;;22.04;68.91;93034.13;5072112;28;20605;-71
2023/08/24 00:59:34;;;;;;;14.88;13.43;;;;;;;22.05;68.45;93030.38;5073954;28;20224;-71
2023/08/24 01:02:00;;;;;;;15.30;14.00;;;;;;;21.98;68.28;93032.81;5072949;28;20185;-71
2023/08/24 01:04:25;;;;;;;15.68;14.27;;;;;;;21.97;68.74;93028.63;5066382;28;20276;-71
2023/08/24 01:06:52;;;;;;;15.32;13.88;;;;;;;21.96;68.35;93011.13;5072015;28;20211;-71
2023/08/24 01:09:18;;;;;;;14.50;13.32;;;;;;;22.05;68.50;93025.03;5071394;28;20231;-71
2023/08/24 01:12:06;;;;;;;15.70;14.30;;;;;;;22.13;68.62;93018.81;5070962;28;20184;-71
2023/08/24 01:14:54;;;;;;;15.63;14.23;;;;;;;22.14;68.66;93020.34;5080659;28;20223;-71
2023/08/24 01:17:24;;;;;;;16.30;14.55;;;;;;;21.97;69.61;93020.63;5073782;28;20183;-72
2023/08/24 01:19:50;;;;;;;15.40;14.10;;;;;;;21.97;69.27;93013.44;5053512;28;20192;-71
2023/08/24 01:22:33;;;;;;;15.13;13.68;;;;;;;21.97;68.97;93017.97;5059446;28;20188;-71
2023/08/24 01:25:36;;;;;;;16.30;15.00;;;;;;;21.92;69.92;93016.34;5071618;28;20225;-71
2023/08/24 01:28:02;;;;;;;15.90;14.63;;;;;;;21.92;69.91;93020.88;5070018;28;20236;-71
2023/08/24 01:30:30;;;;;;;14.93;13.63;;;;;;;21.82;69.27;93021.38;5071687;28;20307;-71
2023/08/24 01:32:56;;;;;;;16.45;14.82;;;;;;;21.79;70.22;93022.03;5069773;28;20238;-72
2023/08/24 01:35:21;;;;;;;14.32;13.02;;;;;;;21.69;70.68;93025.13;5071604;28;20224;-71
2023/08/24 01:37:46;;;;;;;16.65;14.88;;;;;;;21.64;70.93;93017.38;5070655;28;20264;-71
2023/08/24 01:40:23;;;;;;;14.82;13.35;;;;;;;21.58;70.66;93006.22;5071542;28;20247;-72
2023/08/24 01:42:56;;;;;;;15.50;14.05;;;;;;;21.50;71.20;93001.03;5067434;28;20250;-72
2023/08/24 01:45:24;;;;;;;16.05;14.38;;;;;;;21.55;71.24;93012.22;5071335;28;20211;-71
2023/08/24 01:47:52;;;;;;;15.25;13.73;;;;;;;21.50;72.03;93016.97;5070571;28;20255;-71
2023/08/24 01:50:17;;;;;;;15.63;14.05;;;;;;;21.38;72.93;93019.66;5071714;28;20192;-71
2023/08/24 01:52:43;;;;;;;15.05;13.55;;;;;;;21.49;71.65;93012.78;5068488;28;20253;-71
2023/08/24 01:55:10;;;;;;;15.60;14.10;;;;;;;21.40;72.47;93012.13;5066541;28;20200;-71
2023/08/24 01:57:35;;;;;;;16.05;14.48;;;;;;;21.37;74.04;93018.13;5070390;28;20226;-71
2023/08/24 02:00:01;;;;;;;14.55;13.35;;;;;;;21.46;73.40;93013.44;5071223;28;20197;-71
2023/08/24 02:02:26;;;;;;;15.88;14.35;;;;;;;21.37;73.29;93015.47;5070384;28;20191;-72
2023/08/24 02:04:51;;;;;;;16.77;14.18;;;;;;;21.27;73.69;93007.94;5068869;28;20233;-71
2023/08/24 02:07:17;;;;;;;15.60;14.20;;;;;;;21.37;73.78;93004.84;5067814;28;20252;-71
2023/08/24 02:09:42;;;;;;;16.17;14.52;;;;;;;21.33;74.46;93014.56;5070715;28;20272;-71
2023/08/24 02:12:08;;;;;;;16.73;15.23;;;;;;;21.35;73.33;93001.72;5070656;28;20247;-71
2023/08/24 02:14:33;;;;;;;17.08;15.50;;;;;;;21.42;73.68;93007.25;5068298;28;20975;-72
2023/08/24 02:16:58;;;;;;;15.95;14.45;;;;;;;21.35;74.35;93012.34;5066513;28;20199;-71
2023/08/24 02:19:24;;;;;;;16.83;15.23;;;;;;;21.35;74.98;93029.06;5067798;28;20227;-72
2023/08/24 02:21:49;;;;;;;16.27;14.80;;;;;;;21.37;74.21;93026.09;5060054;28;20199;-71
2023/08/24 02:24:15;;;;;;;17.27;14.10;;;;;;;21.22;73.10;93026.75;5070134;28;20268;-72
2023/08/24 02:26:40;;;;;;;17.33;15.57;;;;;;;21.25;73.28;93034.03;5070062;28;20843;-71
2023/08/24 02:29:06;;;;;;;16.15;14.75;;;;;;;21.39;74.08;93034.47;5069745;28;20252;-71
2023/08/24 02:31:31;;;;;;;16.48;14.98;;;;;;;21.33;73.66;93036.59;5066836;28;20177;-71
2023/08/24 02:33:56;;;;;;;15.90;14.48;;;;;;;21.28;73.62;93036.03;5065358;28;20302;-72
2023/08/24 02:36:22;;;;;;;17.27;15.48;;;;;;;21.27;75.02;93037.16;5074430;28;20221;-71
2023/08/24 02:38:47;;;;;;;17.98;16.27;;;;;;;21.28;75.10;93036.03;5063359;28;20226;-71
2023/08/24 02:41:14;;;;;;;16.92;14.68;;;;;;;21.19;74.90;93033.50;5081429;28;20186;-72
2023/08/24 02:43:40;;;;;;;17.25;15.70;;;;;;;21.19;74.79;93024.75;5064934;28;20234;-71
2023/08/24 02:46:09;;;;;;;18.00;16.23;;;;;;;21.12;75.39;93029.88;5066376;28;20210;-73
2023/08/24 02:48:34;;;;;;;18.58;16.75;;;;;;;21.07;75.59;93019.47;5064588;28;20215;-74
2023/08/24 02:51:01;;;;;;;17.48;14.95;;;;;;;21.11;75.30;93023.78;5069519;28;20205;-74
2023/08/24 02:53:27;;;;;;;16.50;15.00;;;;;;;21.15;76.59;93021.22;5069437;28;20237;-73
2023/08/24 02:55:53;;;;;;;16.83;15.10;;;;;;;21.12;75.16;93014.69;5084212;28;20241;-73
2023/08/24 02:58:19;;;;;;;16.83;14.93;;;;;;;21.00;75.41;92998.78;5078549;28;21037;-73
2023/08/24 03:00:44;;;;;;;15.13;13.90;;;;;;;21.03;75.02;93005.31;5065534;28;20204;-73
2023/08/24 03:03:10;;;;;;;16.10;14.52;;;;;;;21.01;74.85;93004.88;5059441;28;20226;-72
2023/08/24 03:05:35;;;;;;;17.02;15.30;;;;;;;21.00;74.29;92984.72;5068882;28;20203;-74
2023/08/24 03:08:01;;;;;;;15.35;14.05;;;;;;;21.08;74.45;92991.78;5069736;28;20226;-73
2023/08/24 03:10:26;;;;;;;15.82;14.43;;;;;;;21.09;74.95;93002.06;5068857;28;20192;-73
2023/08/24 03:12:52;;;;;;;16.70;15.07;;;;;;;21.00;74.86;93001.44;5069343;28;20215;-74
2023/08/24 03:15:17;;;;;;;16.48;14.90;;;;;;;21.14;74.35;93001.06;5068100;28;20192;-74
2023/08/24 03:17:43;;;;;;;16.63;14.90;;;;;;;21.12;74.65;93005.97;5069477;28;20227;-73
2023/08/24 03:20:09;;;;;;;15.82;14.32;;;;;;;21.03;75.14;92989.38;5069947;28;20182;-73
2023/08/24 03:22:36;;;;;;;16.20;14.70;;;;;;;21.25;74.49;93004.84;5069286;28;20230;-74
2023/08/24 03:25:01;;;;;;;17.45;15.88;;;;;;;21.21;74.20;93010.06;5069468;28;20186;-74
2023/08/24 03:27:26;;;;;;;16.30;14.75;;;;;;;21.06;75.24;93031.94;5069075;28;20273;-74
2023/08/24 03:29:53;;;;;;;17.00;15.13;;;;;;;20.77;75.94;93036.66;5066225;28;20244;-74
2023/08/24 03:32:19;;;;;;;19.00;17.08;;;;;;;20.72;77.11;93045.63;5069226;28;20214;-74
2023/08/24 03:34:45;;;;;;;20.20;18.10;;;;;;;20.73;77.93;93050.59;5065822;28;20212;-72
2023/08/24 03:37:10;;;;;;;18.85;16.65;;;;;;;20.73;78.46;93050.59;5058961;28;20203;-72
2023/08/24 03:39:39;;;;;;;19.42;17.42;;;;;;;20.69;78.63;93033.78;5059335;28;20186;-73
2023/08/24 03:42:05;;;;;;;19.48;16.42;;;;;;;20.81;78.63;93048.94;5061768;28;20171;-73
2023/08/24 03:44:30;;;;;;;18.55;16.65;;;;;;;20.77;79.79;93047.28;5064065;28;20282;-72
2023/08/24 03:46:55;;;;;;;22.13;17.83;;;;;;;20.89;80.24;93048.06;5067941;28;20218;-73
2023/08/24 03:49:21;;;;;;;21.00;17.20;;;;;;;20.86;79.94;93053.28;5063790;28;20214;-72
2023/08/24 03:51:46;;;;;;;22.75;17.92;;;;;;;20.81;80.60;93053.50;5069671;28;20849;-72
2023/08/24 03:54:12;;;;;;;19.17;17.10;;;;;;;20.81;80.50;93056.16;5067583;28;20214;-72
2023/08/24 03:56:37;;;;;;;18.25;16.55;;;;;;;20.81;80.33;93066.75;5069407;28;20338;-71
2023/08/24 03:59:03;;;;;;;18.13;16.35;;;;;;;20.80;80.44;93065.97;5070401;28;20768;-72
2023/08/24 04:01:28;;;;;;;23.00;16.92;;;;;;;20.86;79.88;93062.00;5077631;28;20220;-71
2023/08/24 04:03:54;;;;;;;19.20;16.10;;;;;;;20.82;81.21;93065.66;5068509;28;20228;-72
2023/08/24 04:06:19;;;;;;;21.88;17.35;;;;;;;20.84;80.63;93071.41;5069201;28;20214;-71
2023/08/24 04:08:45;;;;;;;17.67;15.93;;;;;;;20.86;80.33;93077.19;5068572;28;20661;-72
2023/08/24 04:11:10;;;;;;;21.35;19.20;;;;;;;20.88;80.80;93066.97;5069407;28;20192;-71
2023/08/24 04:13:36;;;;;;;18.25;16.65;;;;;;;20.85;79.42;93067.66;5066686;28;20310;-72
2023/08/24 04:16:01;;;;;;;16.55;15.02;;;;;;;20.86;79.87;93063.91;5071121;28;20200;-71
2023/08/24 04:18:26;;;;;;;17.15;15.45;;;;;;;20.82;79.90;93061.13;5072147;28;20217;-73
2023/08/24 04:20:53;;;;;;;21.73;16.38;;;;;;;20.91;78.96;93053.84;5073050;28;20175;-73
2023/08/24 04:23:24;;;;;;;18.95;15.40;;;;;;;20.95;78.13;93049.41;5072455;28;20256;-73
2023/08/24 04:25:49;;;;;;;18.67;16.88;;;;;;;20.96;78.09;93053.66;5072640;28;20224;-73
2023/08/24 04:28:15;;;;;;;17.13;15.40;;;;;;;20.97;78.65;93043.78;5070342;28;20220;-74
2023/08/24 04:30:40;;;;;;;19.08;17.00;;;;;;;20.94;78.75;93044.41;5072590;28;20182;-74
2023/08/24 04:33:05;;;;;;;16.73;15.13;;;;;;;21.00;79.75;93048.44;5087120;28;20285;-73
2023/08/24 04:35:35;;;;;;;18.10;15.93;;;;;;;21.06;78.95;93039.91;5080733;28;20229;-74
2023/08/24 04:38:00;;;;;;;18.00;15.35;;;;;;;21.05;79.67;93042.91;5071933;28;20258;-73
2023/08/24 04:40:25;;;;;;;19.35;16.23;;;;;;;21.06;80.27;93049.78;5072511;28;20651;-74
2023/08/24 04:42:51;;;;;;;23.02;17.13;;;;;;;21.07;78.78;93059.28;5067380;28;20223;-74
2023/08/24 04:45:17;;;;;;;18.65;16.90;;;;;;;21.33;76.10;93063.16;5072355;28;20236;-74
2023/08/24 04:47:42;;;;;;;17.88;16.08;;;;;;;21.21;77.61;93073.00;5069785;28;20227;-74
2023/08/24 04:50:08;;;;;;;19.10;17.13;;;;;;;21.09;78.11;93078.31;5072499;28;20193;-74
2023/08/24 04:52:34;;;;;;;19.00;17.05;;;;;;;21.21;78.49;93083.63;5070346;28;20236;-74
2023/08/24 04:55:00;;;;;;;20.23;17.60;;;;;;;21.22;78.95;93087.84;5072357;28;20286;-74
2023/08/24 04:57:25;;;;;;;20.45;18.17;;;;;;;21.31;78.58;93088.53;5070143;28;20187;-73
2023/08/24 04:59:50;;;;;;;26.35;16.85;;;;;;;21.39;78.26;93087.59;5071973;28;20174;-71
2023/08/24 05:02:16;;;;;;;20.42;18.42;;;;;;;21.55;77.68;93073.34;5069700;28;20500;-72
2023/08/24 05:04:41;;;;;;;18.98;16.83;;;;;;;21.63;77.45;93067.13;5071940;28;20187;-74
2023/08/24 05:07:09;;;;;;;20.48;17.00;;;;;;;21.81;77.48;93070.31;5071570;28;20215;-75
2023/08/24 05:09:35;;;;;;;20.13;17.95;;;;;;;21.85;78.30;93073.88;5065916;28;20207;-76
2023/08/24 05:12:00;;;;;;;19.45;17.65;;;;;;;21.99;78.35;93068.94;5060596;28;20182;-75
2023/08/24 05:14:25;;;;;;;22.10;18.83;;;;;;;22.06;77.53;93061.94;5065604;28;20281;-75
2023/08/24 05:16:51;;;;;;;22.40;17.15;;;;;;;22.30;75.61;93063.75;5075112;28;20211;-77
2023/08/24 05:19:16;;;;;;;18.95;16.80;;;;;;;22.45;75.58;93065.66;5070448;28;21059;-74
2023/08/24 05:21:41;;;;;;;20.83;18.70;;;;;;;22.42;74.20;93063.69;5056235;28;20203;-73
2023/08/24 05:24:07;;;;;;;19.13;16.00;;;;;;;22.50;75.33;93078.72;5057968;28;20225;-74
2023/08/24 05:26:32;;;;;;;18.55;16.67;;;;;;;22.53;74.16;93056.78;5068621;28;20234;-73
2023/08/24 05:28:58;;;;;;;18.90;16.70;;;;;;;22.65;76.04;93080.66;5056907;28;20254;-74
2023/08/24 05:31:23;;;;;;;16.30;14.75;;;;;;;22.71;76.30;93084.63;5060658;28;20195;-74
2023/08/24 05:33:48;;;;;;;20.08;18.00;;;;;;;22.48;75.97;93090.81;5062122;28;20224;-74
2023/08/24 05:36:14;;;;;;;19.88;17.52;;;;;;;22.56;75.54;93097.91;5052477;28;20287;-74
2023/08/24 05:38:44;;;;;;;23.67;18.38;;;;;;;22.81;74.72;93104.66;5067366;28;20269;-75
2023/08/24 05:41:10;;;;;;;19.63;17.73;;;;;;;22.72;74.44;93106.69;5070044;28;20227;-73
2023/08/24 05:43:35;;;;;;;23.88;17.50;;;;;;;22.80;74.04;93105.78;5070646;28;20236;-74
2023/08/24 05:46:02;;;;;;;22.17;19.30;;;;;;;22.99;73.44;93097.91;5065019;28;20498;-74
2023/08/24 05:48:29;;;;;;;21.85;17.70;;;;;;;22.55;71.48;93093.69;5059850;28;20260;-75
2023/08/24 05:50:54;;;;;;;25.65;17.10;;;;;;;22.59;73.19;93103.31;5060350;28;20200;-74
2023/08/24 05:53:19;;;;;;;22.13;17.42;;;;;;;22.73;73.16;93103.69;5060329;28;20235;-75
2023/08/24 05:55:45;;;;;;;24.55;18.52;;;;;;;23.10;72.28;93105.03;5063263;28;20207;-77
2023/08/24 05:58:10;;;;;;;36.90;19.35;;;;;;;23.21;72.66;93108.72;5064853;28;20302;-74
2023/08/24 06:00:36;;;;;;;26.00;19.92;;;;;;;23.52;71.08;93107.94;5066067;28;20206;-75
2023/08/24 06:03:02;;;;;;;21.45;18.67;;;;;;;24.19;68.47;93120.16;5052589;28;20228;-73
2023/08/24 06:05:29;;;;;;;28.58;19.52;;;;;;;24.51;66.68;93114.34;5064476;28;20239;-75
2023/08/24 06:07:54;;;;;;;21.95;18.80;;;;;;;23.74;68.79;93100.09;5068615;28;20219;-76
2023/08/24 06:10:20;;;;;;;23.75;20.48;;;;;;;24.28;67.91;93102.78;5060601;28;20223;-75
2023/08/24 06:12:45;;;;;;;26.23;20.35;;;;;;;24.90;65.70;93128.47;5062886;28;20270;-79
2023/08/24 06:15:13;;;;;;;28.80;21.58;;;;;;;24.43;67.36;93126.00;5059846;28;20192;-78
2023/08/24 06:17:38;;;;;;;29.40;21.63;;;;;;;24.06;68.85;93102.72;5065468;28;20243;-81
2023/08/24 06:20:04;;;;;;;25.98;21.52;;;;;;;24.48;67.49;93122.28;5066760;28;20191;-76
2023/08/24 06:22:29;;;;;;;31.90;22.52;;;;;;;24.82;66.29;93111.53;5068642;28;20238;-81
2023/08/24 06:24:59;;;;;;;31.73;21.95;;;;;;;24.85;66.32;93134.09;5072649;28;20223;-81
2023/08/24 06:27:24;;;;;;;31.60;20.95;;;;;;;25.06;64.95;93137.13;5061819;28;20223;-80
2023/08/24 06:29:50;;;;;;;22.75;19.33;;;;;;;24.80;65.28;93118.34;5066613;28;20185;-80
2023/08/24 06:32:15;;;;;;;26.35;22.05;;;;;;;24.65;65.08;93127.19;5056087;28;20200;-79
2023/08/24 06:34:41;;;;;;;28.80;20.92;;;;;;;24.54;65.67;93131.53;5068194;28;20229;-80
2023/08/24 06:37:06;;;;;;;26.75;21.25;;;;;;;25.95;62.02;93135.56;5060913;28;20195;-78
2023/08/24 06:39:31;;;;;;;33.42;23.48;;;;;;;25.58;62.27;93131.16;5055289;28;20228;-81
2023/08/24 06:41:57;;;;;;;27.10;20.98;;;;;;;25.86;61.51;93120.91;5063878;28;20186;-80
2023/08/24 06:44:22;;;;;;;26.77;21.25;;;;;;;25.66;62.16;93120.22;5060301;28;20221;-78
2023/08/24 06:46:47;;;;;;;24.95;21.67;;;;;;;24.84;64.30;93127.97;5060255;28;20200;-79
2023/08/24 06:49:13;;;;;;;25.83;21.02;;;;;;;25.62;62.69;93124.00;5059605;28;20218;-82
2023/08/24 06:51:38;;;;;;;27.77;21.40;;;;;;;25.90;62.17;93121.75;5073307;28;20271;-80
2023/08/24 06:54:04;;;;;;;26.35;22.73;;;;;;;25.62;62.48;93094.56;5067313;28;20217;-82
2023/08/24 06:56:29;;;;;;;25.05;21.88;;;;;;;25.84;62.13;93107.88;5063576;28;20193;-82
2023/08/24 06:58:55;;;;;;;27.55;23.65;;;;;;;26.53;60.25;93131.41;5061609;28;20228;-81
2023/08/24 07:01:20;;;;;;;36.88;24.65;;;;;;;26.21;60.59;93124.13;5059029;28;20200;-79
2023/08/24 07:03:46;;;;;;;27.38;23.05;;;;;;;26.30;60.59;93136.09;5059481;28;20292;-78
2023/08/24 07:06:12;;;;;;;28.13;20.77;;;;;;;26.56;58.78;93128.00;5066688;28;20303;-79
2023/08/24 07:08:38;;;;;;;29.88;21.52;;;;;;;26.30;60.11;93130.75;5065819;28;20281;-77
2023/08/24 07:11:04;;;;;;;31.60;21.92;;;;;;;26.69;59.38;93123.22;5061679;28;20205;-78
2023/08/24 07:13:30;;;;;;;32.13;21.45;;;;;;;27.32;56.51;93125.78;5055880;28;20253;-79
2023/08/24 07:15:56;;;;;;;24.98;18.92;;;;;;;27.42;56.05;93136.63;5064643;28;20192;-80
2023/08/24 07:18:21;;;;;;;26.80;19.95;;;;;;;27.80;53.65;93132.72;5057093;28;20228;-78
2023/08/24 07:20:47;;;;;;;20.08;17.90;;;;;;;28.50;52.44;93127.81;5060030;28;20182;-77
2023/08/24 07:23:12;;;;;;;27.67;18.00;;;;;;;27.66;53.34;93125.31;5063571;28;20229;-76
2023/08/24 07:25:37;;;;;;;20.20;18.08;;;;;;;27.06;53.40;93121.31;5061773;28;20202;-76
2023/08/24 07:28:04;;;;;;;27.55;19.17;;;;;;;26.70;56.16;93122.84;5060338;28;20255;-79
2023/08/24 07:30:31;;;;;;;27.75;18.75;;;;;;;26.73;56.18;93116.75;5062236;28;20178;-80
2023/08/24 07:32:56;;;;;;;22.27;18.70;;;;;;;26.79;57.37;93125.22;5062337;28;20240;-76
2023/08/24 07:35:24;;;;;;;24.50;18.35;;;;;;;26.88;56.33;93120.34;5050149;28;20234;-77
2023/08/24 07:37:50;;;;;;;20.88;18.35;;;;;;;27.82;53.14;93119.69;5065649;28;20225;-78
2023/08/24 07:40:16;;;;;;;19.00;16.95;;;;;;;28.04;52.66;93124.09;5056830;28;20189;-76
2023/08/24 07:42:50;;;;;;;18.98;17.10;;;;;;;27.91;53.14;93120.16;5073292;28;20263;-77
2023/08/24 07:45:16;;;;;;;20.95;17.73;;;;;;;27.57;54.30;93124.09;5068219;28;20203;-79
2023/08/24 07:47:42;;;;;;;20.42;17.30;;;;;;;26.92;57.01;93117.72;5062899;28;20295;-77
2023/08/24 07:50:08;;;;;;;20.60;17.52;;;;;;;27.37;55.43;93120.88;5070086;28;20252;-75
2023/08/24 07:52:34;;;;;;;27.15;17.23;;;;;;;27.11;56.71;93126.34;5060621;28;20240;-76
2023/08/24 07:55:03;;;;;;;28.80;16.95;;;;;;;26.95;56.23;93084.81;5062641;28;20221;-77
2023/08/24 07:57:28;;;;;;;20.40;18.27;;;;;;;27.51;55.57;93125.59;5080075;28;20193;-76
2023/08/24 07:59:53;;;;;;;35.65;17.75;;;;;;;27.55;55.25;93118.34;5071549;28;20173;-76
2023/08/24 08:02:19;;;;;;;25.92;18.73;;;;;;;27.59;54.50;93119.13;5068807;28;20182;-77
2023/08/24 08:04:45;;;;;;;23.67;19.02;;;;;;;27.48;53.99;93124.41;5059873;28;20182;-77
2023/08/24 08:07:10;;;;;;;22.23;17.55;;;;;;;27.54;54.06;93132.88;5060821;28;20245;-75
2023/08/24 08:09:38;;;;;;;21.27;18.40;;;;;;;27.55;55.27;93123.72;5069820;28;20197;-78
2023/08/24 08:12:04;;;;;;;28.10;18.55;;;;;;;27.69;53.50;93135.31;5062688;28;20192;-76
2023/08/24 08:14:30;;;;;;;26.42;18.60;;;;;;;27.83;54.03;93119.31;5062458;28;20226;-77
2023/08/24 08:16:58;;;;;;;20.77;17.30;;;;;;;27.55;55.21;93121.03;5056316;28;20212;-77
2023/08/24 08:19:26;;;;;;;21.52;18.40;;;;;;;27.15;55.88;93126.38;5065106;28;20229;-77
2023/08/24 08:21:52;;;;;;;24.20;19.33;;;;;;;27.77;54.22;93133.44;5059619;28;20190;-77
2023/08/24 08:24:17;;;;;;;22.55;18.38;;;;;;;27.84;54.38;93130.84;5063376;28;20231;-75
2023/08/24 08:26:42;;;;;;;24.27;19.23;;;;;;;27.75;53.87;93130.38;5071404;28;20213;-77
2023/08/24 08:29:08;;;;;;;31.45;17.98;;;;;;;28.13;52.08;93127.22;5068881;28;20234;-78
2023/08/24 08:31:33;;;;;;;23.02;17.00;;;;;;;27.93;53.55;93134.00;5062176;28;20205;-77
2023/08/24 08:33:58;;;;;;;23.42;17.02;;;;;;;28.37;51.44;93126.59;5069353;28;20236;-80
2023/08/24 08:36:24;;;;;;;18.40;16.63;;;;;;;28.26;52.18;93131.13;5072120;28;20220;-79
2023/08/24 08:38:49;;;;;;;22.73;16.65;;;;;;;28.27;50.17;93127.28;5075842;28;20226;-78
2023/08/24 08:41:17;;;;;;;18.58;15.68;;;;;;;28.28;50.04;93121.53;5070733;28;20211;-76
2023/08/24 08:43:42;;;;;;;17.42;15.25;;;;;;;28.50;50.59;93121.69;5060138;28;20241;-80
2023/08/24 08:46:08;;;;;;;18.45;16.48;;;;;;;28.88;48.14;93126.44;5064554;28;20206;-80
2023/08/24 08:48:35;;;;;;;18.52;16.02;;;;;;;28.53;49.79;93102.13;5061367;28;20230;-80
2023/08/24 08:51:02;;;;;;;22.92;17.05;;;;;;;28.65;49.49;93110.63;5062800;28;20201;-79
2023/08/24 08:53:27;;;;;;;19.30;17.23;;;;;;;28.80;48.17;93112.22;5055565;28;20252;-80
2023/08/24 08:55:55;;;;;;;18.67;16.85;;;;;;;29.05;47.46;93118.44;5060137;28;20174;-78
2023/08/24 08:58:21;;;;;;;16.98;15.48;;;;;;;28.60;48.69;93108.31;5066434;28;20254;-79
2023/08/24 09:00:47;;;;;;;18.23;16.30;;;;;;;28.76;47.99;93103.38;5066695;28;20291;-78
2023/08/24 09:03:17;;;;;;;20.45;15.73;;;;;;;28.75;47.24;93104.50;5060052;28;20214;-77
2023/08/24 09:05:42;;;;;;;18.42;16.67;;;;;;;28.80;47.56;93096.09;5063780;28;20241;-76
2023/08/24 09:08:09;;;;;;;18.08;16.30;;;;;;;28.99;46.89;93098.44;5061357;28;20233;-76
2023/08/24 09:10:34;;;;;;;20.65;16.70;;;;;;;28.93;47.33;93089.22;5063647;28;20214;-77
2023/08/24 09:13:00;;;;;;;18.05;16.25;;;;;;;29.20;46.93;93095.81;5067252;28;20267;-75
2023/08/24 09:15:26;;;;;;;18.02;16.23;;;;;;;29.48;45.45;93093.16;5062447;28;20185;-76
2023/08/24 09:17:54;;;;;;;20.85;15.45;;;;;;;29.57;44.19;93080.06;5070804;28;20280;-76
2023/08/24 09:20:20;;;;;;;18.55;16.75;;;;;;;29.46;44.17;93084.72;5059830;28;20190;-75
2023/08/24 09:22:45;;;;;;;19.58;15.77;;;;;;;29.66;44.44;93085.09;5063724;28;20283;-75
2023/08/24 09:25:11;;;;;;;18.17;16.30;;;;;;;29.67;45.14;93078.56;5066662;28;20482;-77
2023/08/24 09:27:37;;;;;;;20.20;18.17;;;;;;;29.31;45.06;93077.00;5062097;28;20280;-75
2023/08/24 09:30:02;;;;;;;18.30;16.50;;;;;;;29.80;44.65;93071.63;5070859;28;20208;-74
2023/08/24 09:32:29;;;;;;;18.20;16.55;;;;;;;29.94;42.87;93065.44;5062294;28;20198;-75
2023/08/24 09:34:55;;;;;;;18.88;16.75;;;;;;;29.86;42.35;93075.47;5066896;28;20221;-75
2023/08/24 09:37:21;;;;;;;17.75;16.05;;;;;;;29.93;43.40;93063.94;5066706;28;20199;-74
2023/08/24 09:39:47;;;;;;;18.48;16.77;;;;;;;29.88;42.97;93064.31;5072658;28;20829;-73
2023/08/24 09:42:13;;;;;;;17.35;15.85;;;;;;;29.39;44.11;93054.31;5054149;28;20195;-74
2023/08/24 09:44:46;;;;;;;18.88;16.88;;;;;;;29.57;43.39;93061.22;5067779;28;20165;-75
2023/08/24 09:47:12;;;;;;;18.85;17.05;;;;;;;29.90;43.79;93045.84;5078922;28;20219;-75
2023/08/24 09:49:38;;;;;;;19.70;17.65;;;;;;;29.35;43.37;93051.66;5071141;28;20197;-75
2023/08/24 09:52:07;;;;;;;18.50;16.77;;;;;;;29.27;42.93;93055.47;5078996;28;20191;-73
2023/08/24 09:54:36;;;;;;;18.10;16.23;;;;;;;29.81;42.69;93042.78;5068259;28;20212;-74
2023/08/24 09:57:03;;;;;;;18.42;16.60;;;;;;;30.23;42.29;93040.03;5060928;28;20197;-72
2023/08/24 09:59:32;;;;;;;18.73;16.95;;;;;;;30.49;41.58;93047.63;5057537;28;20219;-75
2023/08/24 10:02:01;;;;;;;16.70;15.10;;;;;;;30.74;40.61;93046.31;5071862;28;20201;-76
2023/08/24 10:04:33;;;;;;;21.98;16.02;;;;;;;30.75;40.46;93047.91;5059508;28;20239;-76
2023/08/24 10:07:21;;;;;;;16.90;15.13;;;;;;;30.72;39.28;93039.81;5062508;28;20212;-74
2023/08/24 10:10:19;;;;;;;17.75;15.93;;;;;;;30.82;39.99;93042.47;5052393;28;20209;-74
2023/08/24 10:12:50;;;;;;;16.38;14.98;;;;;;;30.69;40.37;93040.59;5046336;28;20225;-75
2023/08/24 10:15:17;;;;;;;17.33;15.82;;;;;;;30.53;39.62;93040.28;5065132;28;20174;-75
2023/08/24 10:17:44;;;;;;;16.02;14.55;;;;;;;30.88;37.53;93010.47;5075902;28;20221;-74
2023/08/24 10:20:10;;;;;;;16.27;14.80;;;;;;;30.97;38.11;93029.69;5067906;28;20186;-76
2023/08/24 10:22:39;;;;;;;16.10;14.52;;;;;;;31.17;36.92;93028.78;5075036;28;20225;-79
2023/08/24 10:25:06;;;;;;;16.42;13.90;;;;;;;31.58;36.62;93030.78;5060664;28;20201;-77
2023/08/24 10:27:32;;;;;;;17.40;15.57;;;;;;;31.58;36.80;93036.97;5068635;28;20234;-77
2023/08/24 10:29:58;;;;;;;18.00;14.98;;;;;;;31.82;36.95;93035.97;5074873;28;20197;-77
2023/08/24 10:32:25;;;;;;;18.05;14.70;;;;;;;32.01;36.44;93034.63;5066729;28;20197;-78
2023/08/24 10:34:51;;;;;;;17.63;15.77;;;;;;;31.67;36.18;93026.47;5059189;28;20225;-79
2023/08/24 10:37:16;;;;;;;15.75;14.35;;;;;;;31.11;36.81;93016.84;5070394;28;20193;-80
2023/08/24 10:39:46;;;;;;;16.35;14.80;;;;;;;31.74;36.36;93018.28;5065055;28;20239;-81
2023/08/24 10:42:15;;;;;;;15.68;14.27;;;;;;;32.57;35.09;93026.69;5065923;28;20208;-78
2023/08/24 10:44:45;;;;;;;16.88;14.98;;;;;;;32.14;36.71;93017.50;5058499;28;20177;-76
2023/08/24 10:47:25;;;;;;;17.50;15.93;;;;;;;31.85;37.58;93012.78;5067038;28;20697;-77
2023/08/24 10:49:54;;;;;;;18.00;16.35;;;;;;;31.32;37.96;93021.34;5058605;28;20224;-78
2023/08/24 10:52:39;;;;;;;17.80;16.05;;;;;;;31.99;37.27;93013.44;5056426;28;20257;-76
2023/08/24 10:55:21;;;;;;;17.27;15.50;;;;;;;31.70;37.05;93022.97;5061179;28;20181;-75
2023/08/24 10:58:02;;;;;;;16.38;14.73;;;;;;;31.60;36.66;93018.41;5064799;28;20276;-79
2023/08/24 11:00:29;;;;;;;17.10;15.48;;;;;;;31.46;37.39;93012.38;5061252;28;20197;-80
2023/08/24 11:02:55;;;;;;;15.90;14.50;;;;;;;31.65;36.15;93004.47;5067208;28;20225;-79
2023/08/24 11:05:29;;;;;;;16.85;14.93;;;;;;;31.33;36.02;93000.53;5065401;28;20972;-74
2023/08/24 11:07:59;;;;;;;16.05;14.55;;;;;;;31.06;36.31;92995.69;5052226;28;20258;-75
2023/08/24 11:10:30;;;;;;;19.13;17.25;;;;;;;31.52;35.77;92987.25;5060313;28;20200;-79
2023/08/24 11:13:12;;;;;;;17.38;15.60;;;;;;;31.75;35.26;92998.22;5066643;28;20249;-74
2023/08/24 11:15:50;;;;;;;15.88;14.38;;;;;;;31.76;36.26;92996.28;5074404;28;20186;-78